sensor_id;sensor_type;location;lat;lon;timestamp;P1;durP1;ratioP1;P2;durP2;ratioP2
55601;SDS011;59921;51.332;12.410;2022-08-21T00:01:29;4.68;;;3.08;;
55601;SDS011;59921;51.332;12.410;2022-08-21T00:03:55;3.33;;;2.50;;
55601;SDS011;59921;51.332;12.410;2022-08-21T00:06:22;3.28;;;2.83;;
55601;SDS011;59921;51.332;12.410;2022-08-21T00:08:49;3.75;;;2.75;;
55601;SDS011;59921;51.332;12.410;2022-08-21T00:11:16;3.65;;;2.90;;
55601;SDS011;59921;51.332;12.410;2022-08-21T00:13:41;3.55;;;2.47;;
55601;SDS011;59921;51.332;12.410;2022-08-21T00:16:07;3.58;;;2.80;;
55601;SDS011;59921;51.332;12.410;2022-08-21T00:18:33;4.63;;;3.10;;
55601;SDS011;59921;51.332;12.410;2022-08-21T00:20:58;4.65;;;2.88;;
55601;SDS011;59921;51.332;12.410;2022-08-21T00:23:24;4.50;;;3.50;;
55601;SDS011;59921;51.332;12.410;2022-08-21T00:25:49;3.92;;;2.80;;
55601;SDS011;59921;51.332;12.410;2022-08-21T00:28:15;4.72;;;3.20;;
55601;SDS011;59921;51.332;12.410;2022-08-21T00:30:41;4.60;;;3.17;;
55601;SDS011;59921;51.332;12.410;2022-08-21T00:33:08;4.40;;;2.83;;
55601;SDS011;59921;51.332;12.410;2022-08-21T00:35:36;3.63;;;2.72;;
55601;SDS011;59921;51.332;12.410;2022-08-21T00:38:03;4.28;;;2.97;;
55601;SDS011;59921;51.332;12.410;2022-08-21T00:40:33;3.72;;;2.78;;
55601;SDS011;59921;51.332;12.410;2022-08-21T00:43:25;3.22;;;2.50;;
55601;SDS011;59921;51.332;12.410;2022-08-21T00:45:53;4.30;;;2.83;;
55601;SDS011;59921;51.332;12.410;2022-08-21T00:48:19;4.13;;;3.08;;
55601;SDS011;59921;51.332;12.410;2022-08-21T00:53:22;3.70;;;2.50;;
55601;SDS011;59921;51.332;12.410;2022-08-21T00:55:48;3.35;;;2.55;;
55601;SDS011;59921;51.332;12.410;2022-08-21T00:58:14;3.55;;;2.72;;
55601;SDS011;59921;51.332;12.410;2022-08-21T01:00:41;3.17;;;2.55;;
55601;SDS011;59921;51.332;12.410;2022-08-21T01:03:13;3.00;;;2.47;;
55601;SDS011;59921;51.332;12.410;2022-08-21T01:05:42;3.13;;;2.28;;
55601;SDS011;59921;51.332;12.410;2022-08-21T01:08:09;3.88;;;2.83;;
55601;SDS011;59921;51.332;12.410;2022-08-21T01:10:35;3.58;;;2.80;;
55601;SDS011;59921;51.332;12.410;2022-08-21T01:13:02;3.45;;;2.78;;
55601;SDS011;59921;51.332;12.410;2022-08-21T01:15:32;3.97;;;2.83;;
55601;SDS011;59921;51.332;12.410;2022-08-21T01:18:01;3.85;;;2.72;;
55601;SDS011;59921;51.332;12.410;2022-08-21T01:20:28;2.67;;;2.40;;
55601;SDS011;59921;51.332;12.410;2022-08-21T01:22:54;3.45;;;2.95;;
55601;SDS011;59921;51.332;12.410;2022-08-21T01:25:20;3.55;;;2.60;;
55601;SDS011;59921;51.332;12.410;2022-08-21T01:27:45;4.05;;;2.70;;
55601;SDS011;59921;51.332;12.410;2022-08-21T01:30:14;3.17;;;2.50;;
55601;SDS011;59921;51.332;12.410;2022-08-21T01:32:50;3.75;;;2.47;;
55601;SDS011;59921;51.332;12.410;2022-08-21T01:35:16;3.53;;;2.88;;
55601;SDS011;59921;51.332;12.410;2022-08-21T01:37:43;3.80;;;2.70;;
55601;SDS011;59921;51.332;12.410;2022-08-21T01:40:10;3.10;;;2.53;;
55601;SDS011;59921;51.332;12.410;2022-08-21T01:42:37;3.42;;;2.45;;
55601;SDS011;59921;51.332;12.410;2022-08-21T01:45:03;2.95;;;2.17;;
55601;SDS011;59921;51.332;12.410;2022-08-21T01:47:30;3.25;;;2.80;;
55601;SDS011;59921;51.332;12.410;2022-08-21T01:49:56;4.07;;;2.90;;
55601;SDS011;59921;51.332;12.410;2022-08-21T01:52:22;3.08;;;2.30;;
55601;SDS011;59921;51.332;12.410;2022-08-21T01:54:47;3.63;;;2.70;;
55601;SDS011;59921;51.332;12.410;2022-08-21T01:57:13;3.42;;;2.58;;
55601;SDS011;59921;51.332;12.410;2022-08-21T01:59:39;3.55;;;2.15;;
55601;SDS011;59921;51.332;12.410;2022-08-21T02:02:05;3.13;;;2.30;;
55601;SDS011;59921;51.332;12.410;2022-08-21T02:04:31;3.35;;;2.40;;
55601;SDS011;59921;51.332;12.410;2022-08-21T02:06:57;3.08;;;2.15;;
55601;SDS011;59921;51.332;12.410;2022-08-21T02:09:24;3.22;;;2.30;;
55601;SDS011;59921;51.332;12.410;2022-08-21T02:11:50;3.55;;;2.63;;
55601;SDS011;59921;51.332;12.410;2022-08-21T02:14:16;2.67;;;2.17;;
55601;SDS011;59921;51.332;12.410;2022-08-21T02:16:43;3.03;;;2.38;;
55601;SDS011;59921;51.332;12.410;2022-08-21T02:19:10;4.10;;;2.78;;
55601;SDS011;59921;51.332;12.410;2022-08-21T02:21:37;3.00;;;2.15;;
55601;SDS011;59921;51.332;12.410;2022-08-21T02:24:03;3.25;;;2.50;;
55601;SDS011;59921;51.332;12.410;2022-08-21T02:26:29;2.70;;;2.20;;
55601;SDS011;59921;51.332;12.410;2022-08-21T02:28:55;3.25;;;2.42;;
55601;SDS011;59921;51.332;12.410;2022-08-21T02:31:20;3.47;;;2.10;;
55601;SDS011;59921;51.332;12.410;2022-08-21T02:33:46;3.20;;;2.20;;
55601;SDS011;59921;51.332;12.410;2022-08-21T02:36:11;3.20;;;2.55;;
55601;SDS011;59921;51.332;12.410;2022-08-21T02:38:38;3.10;;;2.45;;
55601;SDS011;59921;51.332;12.410;2022-08-21T02:41:11;3.17;;;2.17;;
55601;SDS011;59921;51.332;12.410;2022-08-21T02:43:39;3.53;;;2.22;;
55601;SDS011;59921;51.332;12.410;2022-08-21T02:46:05;2.50;;;1.90;;
55601;SDS011;59921;51.332;12.410;2022-08-21T02:48:32;2.88;;;1.95;;
55601;SDS011;59921;51.332;12.410;2022-08-21T02:51:00;3.85;;;2.42;;
55601;SDS011;59921;51.332;12.410;2022-08-21T02:53:28;2.92;;;2.05;;
55601;SDS011;59921;51.332;12.410;2022-08-21T02:55:56;2.70;;;2.25;;
55601;SDS011;59921;51.332;12.410;2022-08-21T02:58:24;2.95;;;2.03;;
55601;SDS011;59921;51.332;12.410;2022-08-21T03:00:52;3.60;;;2.30;;
55601;SDS011;59921;51.332;12.410;2022-08-21T03:03:18;3.00;;;2.13;;
55601;SDS011;59921;51.332;12.410;2022-08-21T03:05:46;2.63;;;1.92;;
55601;SDS011;59921;51.332;12.410;2022-08-21T03:08:12;2.10;;;1.90;;
55601;SDS011;59921;51.332;12.410;2022-08-21T03:10:41;3.60;;;1.85;;
55601;SDS011;59921;51.332;12.410;2022-08-21T03:13:09;3.67;;;2.00;;
55601;SDS011;59921;51.332;12.410;2022-08-21T03:15:34;2.53;;;1.75;;
55601;SDS011;59921;51.332;12.410;2022-08-21T03:18:01;2.85;;;1.95;;
55601;SDS011;59921;51.332;12.410;2022-08-21T03:20:27;2.78;;;2.00;;
55601;SDS011;59921;51.332;12.410;2022-08-21T03:22:54;2.28;;;1.80;;
55601;SDS011;59921;51.332;12.410;2022-08-21T03:25:20;2.65;;;2.03;;
55601;SDS011;59921;51.332;12.410;2022-08-21T03:27:47;1.98;;;1.75;;
55601;SDS011;59921;51.332;12.410;2022-08-21T03:30:15;3.03;;;2.25;;
55601;SDS011;59921;51.332;12.410;2022-08-21T03:32:42;2.10;;;1.83;;
55601;SDS011;59921;51.332;12.410;2022-08-21T03:35:08;3.15;;;2.13;;
55601;SDS011;59921;51.332;12.410;2022-08-21T03:37:34;4.25;;;1.70;;
55601;SDS011;59921;51.332;12.410;2022-08-21T03:40:00;4.20;;;2.20;;
55601;SDS011;59921;51.332;12.410;2022-08-21T03:42:27;2.50;;;1.70;;
55601;SDS011;59921;51.332;12.410;2022-08-21T03:44:53;2.83;;;1.92;;
55601;SDS011;59921;51.332;12.410;2022-08-21T03:47:18;3.17;;;2.28;;
55601;SDS011;59921;51.332;12.410;2022-08-21T03:49:44;1.98;;;1.77;;
55601;SDS011;59921;51.332;12.410;2022-08-21T03:52:09;2.92;;;2.20;;
55601;SDS011;59921;51.332;12.410;2022-08-21T03:54:35;2.45;;;1.83;;
55601;SDS011;59921;51.332;12.410;2022-08-21T03:57:00;1.98;;;1.70;;
55601;SDS011;59921;51.332;12.410;2022-08-21T03:59:26;2.90;;;2.10;;
55601;SDS011;59921;51.332;12.410;2022-08-21T04:01:57;2.17;;;1.80;;
55601;SDS011;59921;51.332;12.410;2022-08-21T04:04:24;2.13;;;1.83;;
55601;SDS011;59921;51.332;12.410;2022-08-21T04:06:51;2.13;;;1.70;;
55601;SDS011;59921;51.332;12.410;2022-08-21T04:09:16;2.00;;;1.70;;
55601;SDS011;59921;51.332;12.410;2022-08-21T04:11:42;2.90;;;1.85;;
55601;SDS011;59921;51.332;12.410;2022-08-21T04:14:08;2.40;;;1.70;;
55601;SDS011;59921;51.332;12.410;2022-08-21T04:16:34;1.85;;;1.55;;
55601;SDS011;59921;51.332;12.410;2022-08-21T04:19:00;1.75;;;1.50;;
55601;SDS011;59921;51.332;12.410;2022-08-21T04:21:26;3.08;;;2.08;;
55601;SDS011;59921;51.332;12.410;2022-08-21T04:23:53;2.97;;;2.00;;
55601;SDS011;59921;51.332;12.410;2022-08-21T04:26:20;1.52;;;1.38;;
55601;SDS011;59921;51.332;12.410;2022-08-21T04:28:45;1.85;;;1.42;;
55601;SDS011;59921;51.332;12.410;2022-08-21T04:31:11;1.73;;;1.50;;
55601;SDS011;59921;51.332;12.410;2022-08-21T04:33:36;2.25;;;1.70;;
55601;SDS011;59921;51.332;12.410;2022-08-21T04:36:02;1.65;;;1.50;;
55601;SDS011;59921;51.332;12.410;2022-08-21T04:38:28;2.05;;;1.50;;
55601;SDS011;59921;51.332;12.410;2022-08-21T04:40:56;1.85;;;1.58;;
55601;SDS011;59921;51.332;12.410;2022-08-21T04:43:22;2.05;;;1.40;;
55601;SDS011;59921;51.332;12.410;2022-08-21T04:45:48;2.10;;;1.70;;
55601;SDS011;59921;51.332;12.410;2022-08-21T04:48:15;1.60;;;1.40;;
55601;SDS011;59921;51.332;12.410;2022-08-21T04:53:14;2.22;;;1.50;;
55601;SDS011;59921;51.332;12.410;2022-08-21T04:55:43;1.90;;;1.52;;
55601;SDS011;59921;51.332;12.410;2022-08-21T04:58:11;2.33;;;1.58;;
55601;SDS011;59921;51.332;12.410;2022-08-21T05:00:39;2.15;;;1.40;;
55601;SDS011;59921;51.332;12.410;2022-08-21T05:03:06;2.65;;;1.70;;
55601;SDS011;59921;51.332;12.410;2022-08-21T05:05:33;1.83;;;1.40;;
55601;SDS011;59921;51.332;12.410;2022-08-21T05:08:00;2.10;;;1.40;;
55601;SDS011;59921;51.332;12.410;2022-08-21T05:10:27;1.92;;;1.58;;
55601;SDS011;59921;51.332;12.410;2022-08-21T05:12:53;2.38;;;1.77;;
55601;SDS011;59921;51.332;12.410;2022-08-21T05:15:19;2.30;;;1.50;;
55601;SDS011;59921;51.332;12.410;2022-08-21T05:17:45;2.40;;;1.50;;
55601;SDS011;59921;51.332;12.410;2022-08-21T05:20:11;2.65;;;1.60;;
55601;SDS011;59921;51.332;12.410;2022-08-21T05:22:38;2.42;;;1.50;;
55601;SDS011;59921;51.332;12.410;2022-08-21T05:25:05;2.85;;;1.35;;
55601;SDS011;59921;51.332;12.410;2022-08-21T05:27:32;2.85;;;1.52;;
55601;SDS011;59921;51.332;12.410;2022-08-21T05:29:58;2.20;;;1.27;;
55601;SDS011;59921;51.332;12.410;2022-08-21T05:32:23;2.15;;;1.25;;
55601;SDS011;59921;51.332;12.410;2022-08-21T05:34:49;2.58;;;1.67;;
55601;SDS011;59921;51.332;12.410;2022-08-21T05:37:15;2.17;;;1.65;;
55601;SDS011;59921;51.332;12.410;2022-08-21T05:39:41;3.00;;;1.70;;
55601;SDS011;59921;51.332;12.410;2022-08-21T05:42:06;2.13;;;1.45;;
55601;SDS011;59921;51.332;12.410;2022-08-21T05:44:32;2.10;;;1.60;;
55601;SDS011;59921;51.332;12.410;2022-08-21T05:47:02;2.60;;;1.40;;
55601;SDS011;59921;51.332;12.410;2022-08-21T05:49:29;1.98;;;1.30;;
55601;SDS011;59921;51.332;12.410;2022-08-21T05:51:55;2.05;;;1.70;;
55601;SDS011;59921;51.332;12.410;2022-08-21T05:54:20;1.55;;;1.30;;
55601;SDS011;59921;51.332;12.410;2022-08-21T05:56:46;1.80;;;1.30;;
55601;SDS011;59921;51.332;12.410;2022-08-21T05:59:11;2.22;;;1.45;;
55601;SDS011;59921;51.332;12.410;2022-08-21T06:01:38;1.90;;;1.40;;
55601;SDS011;59921;51.332;12.410;2022-08-21T06:04:04;1.50;;;1.30;;
55601;SDS011;59921;51.332;12.410;2022-08-21T06:06:30;1.88;;;1.52;;
55601;SDS011;59921;51.332;12.410;2022-08-21T06:08:56;1.65;;;1.27;;
55601;SDS011;59921;51.332;12.410;2022-08-21T06:11:21;1.70;;;1.25;;
55601;SDS011;59921;51.332;12.410;2022-08-21T06:13:47;2.00;;;1.50;;
55601;SDS011;59921;51.332;12.410;2022-08-21T06:16:13;1.73;;;1.42;;
55601;SDS011;59921;51.332;12.410;2022-08-21T06:18:41;2.47;;;1.50;;
55601;SDS011;59921;51.332;12.410;2022-08-21T06:21:07;2.05;;;1.30;;
55601;SDS011;59921;51.332;12.410;2022-08-21T06:23:33;1.65;;;1.17;;
55601;SDS011;59921;51.332;12.410;2022-08-21T06:26:00;1.95;;;1.33;;
55601;SDS011;59921;51.332;12.410;2022-08-21T06:28:27;2.45;;;1.40;;
55601;SDS011;59921;51.332;12.410;2022-08-21T06:30:53;1.83;;;1.40;;
55601;SDS011;59921;51.332;12.410;2022-08-21T06:33:19;2.05;;;1.20;;
55601;SDS011;59921;51.332;12.410;2022-08-21T06:35:44;2.67;;;1.55;;
55601;SDS011;59921;51.332;12.410;2022-08-21T06:38:10;1.42;;;1.33;;
55601;SDS011;59921;51.332;12.410;2022-08-21T06:40:35;1.73;;;1.20;;
55601;SDS011;59921;51.332;12.410;2022-08-21T06:43:06;2.72;;;1.30;;
55601;SDS011;59921;51.332;12.410;2022-08-21T06:45:36;2.13;;;1.35;;
55601;SDS011;59921;51.332;12.410;2022-08-21T06:48:02;2.42;;;1.10;;
55601;SDS011;59921;51.332;12.410;2022-08-21T06:50:28;2.13;;;1.40;;
55601;SDS011;59921;51.332;12.410;2022-08-21T06:53:01;1.65;;;1.35;;
55601;SDS011;59921;51.332;12.410;2022-08-21T06:55:32;2.30;;;1.30;;
55601;SDS011;59921;51.332;12.410;2022-08-21T06:57:58;1.42;;;1.10;;
55601;SDS011;59921;51.332;12.410;2022-08-21T07:00:24;2.65;;;1.35;;
55601;SDS011;59921;51.332;12.410;2022-08-21T07:02:50;2.33;;;1.38;;
55601;SDS011;59921;51.332;12.410;2022-08-21T07:05:16;2.35;;;1.20;;
55601;SDS011;59921;51.332;12.410;2022-08-21T07:07:42;2.13;;;1.48;;
55601;SDS011;59921;51.332;12.410;2022-08-21T07:10:08;1.65;;;1.30;;
55601;SDS011;59921;51.332;12.410;2022-08-21T07:12:34;3.08;;;1.23;;
55601;SDS011;59921;51.332;12.410;2022-08-21T07:14:59;1.45;;;1.25;;
55601;SDS011;59921;51.332;12.410;2022-08-21T07:17:25;2.00;;;1.25;;
55601;SDS011;59921;51.332;12.410;2022-08-21T07:19:50;1.23;;;1.02;;
55601;SDS011;59921;51.332;12.410;2022-08-21T07:22:17;1.65;;;1.20;;
55601;SDS011;59921;51.332;12.410;2022-08-21T07:24:45;2.10;;;1.20;;
55601;SDS011;59921;51.332;12.410;2022-08-21T07:27:11;2.63;;;1.10;;
55601;SDS011;59921;51.332;12.410;2022-08-21T07:29:37;1.17;;;1.05;;
55601;SDS011;59921;51.332;12.410;2022-08-21T07:32:03;2.17;;;1.48;;
55601;SDS011;59921;51.332;12.410;2022-08-21T07:34:29;2.08;;;1.10;;
55601;SDS011;59921;51.332;12.410;2022-08-21T07:36:55;2.33;;;1.30;;
55601;SDS011;59921;51.332;12.410;2022-08-21T07:39:20;1.90;;;1.30;;
55601;SDS011;59921;51.332;12.410;2022-08-21T07:41:46;1.77;;;1.15;;
55601;SDS011;59921;51.332;12.410;2022-08-21T07:44:11;3.40;;;1.40;;
55601;SDS011;59921;51.332;12.410;2022-08-21T07:46:37;1.30;;;1.10;;
55601;SDS011;59921;51.332;12.410;2022-08-21T07:49:02;1.15;;;1.05;;
55601;SDS011;59921;51.332;12.410;2022-08-21T07:51:28;1.65;;;1.20;;
55601;SDS011;59921;51.332;12.410;2022-08-21T07:53:55;1.23;;;1.13;;
55601;SDS011;59921;51.332;12.410;2022-08-21T07:56:22;2.95;;;1.50;;
55601;SDS011;59921;51.332;12.410;2022-08-21T07:58:48;2.03;;;1.20;;
55601;SDS011;59921;51.332;12.410;2022-08-21T08:01:13;1.85;;;1.15;;
55601;SDS011;59921;51.332;12.410;2022-08-21T08:03:39;1.55;;;1.15;;
55601;SDS011;59921;51.332;12.410;2022-08-21T08:06:06;2.33;;;1.13;;
55601;SDS011;59921;51.332;12.410;2022-08-21T08:08:33;1.45;;;0.95;;
55601;SDS011;59921;51.332;12.410;2022-08-21T08:10:59;1.15;;;1.00;;
55601;SDS011;59921;51.332;12.410;2022-08-21T08:13:26;3.17;;;1.30;;
55601;SDS011;59921;51.332;12.410;2022-08-21T08:15:52;2.72;;;1.40;;
55601;SDS011;59921;51.332;12.410;2022-08-21T08:18:18;1.55;;;1.23;;
55601;SDS011;59921;51.332;12.410;2022-08-21T08:20:44;1.48;;;0.98;;
55601;SDS011;59921;51.332;12.410;2022-08-21T08:23:13;2.15;;;1.10;;
55601;SDS011;59921;51.332;12.410;2022-08-21T08:25:39;1.15;;;1.00;;
55601;SDS011;59921;51.332;12.410;2022-08-21T08:28:05;1.95;;;1.20;;
55601;SDS011;59921;51.332;12.410;2022-08-21T08:30:32;2.00;;;1.02;;
55601;SDS011;59921;51.332;12.410;2022-08-21T08:32:57;2.40;;;1.10;;
55601;SDS011;59921;51.332;12.410;2022-08-21T08:35:24;2.22;;;1.00;;
55601;SDS011;59921;51.332;12.410;2022-08-21T08:37:50;1.67;;;1.10;;
55601;SDS011;59921;51.332;12.410;2022-08-21T08:40:22;1.52;;;1.00;;
55601;SDS011;59921;51.332;12.410;2022-08-21T08:42:57;1.88;;;1.08;;
55601;SDS011;59921;51.332;12.410;2022-08-21T08:45:22;2.35;;;1.20;;
55601;SDS011;59921;51.332;12.410;2022-08-21T08:47:55;1.50;;;0.95;;
55601;SDS011;59921;51.332;12.410;2022-08-21T08:53:08;2.90;;;1.30;;
55601;SDS011;59921;51.332;12.410;2022-08-21T08:55:40;2.60;;;1.30;;
55601;SDS011;59921;51.332;12.410;2022-08-21T08:58:08;1.40;;;1.00;;
55601;SDS011;59921;51.332;12.410;2022-08-21T09:00:40;2.65;;;1.50;;
55601;SDS011;59921;51.332;12.410;2022-08-21T09:03:06;1.38;;;1.00;;
55601;SDS011;59921;51.332;12.410;2022-08-21T09:06:20;1.95;;;1.10;;
55601;SDS011;59921;51.332;12.410;2022-08-21T09:11:13;4.90;;;1.52;;
55601;SDS011;59921;51.332;12.410;2022-08-21T09:13:47;1.23;;;1.00;;
55601;SDS011;59921;51.332;12.410;2022-08-21T09:24:54;1.73;;;1.10;;
55601;SDS011;59921;51.332;12.410;2022-08-21T09:27:23;1.80;;;1.10;;
55601;SDS011;59921;51.332;12.410;2022-08-21T09:29:51;1.42;;;1.00;;
55601;SDS011;59921;51.332;12.410;2022-08-21T09:32:23;1.38;;;1.05;;
55601;SDS011;59921;51.332;12.410;2022-08-21T09:35:04;1.67;;;1.03;;
55601;SDS011;59921;51.332;12.410;2022-08-21T09:37:34;1.42;;;1.00;;
55601;SDS011;59921;51.332;12.410;2022-08-21T09:43:22;1.35;;;1.15;;
55601;SDS011;59921;51.332;12.410;2022-08-21T09:45:48;2.30;;;1.00;;
55601;SDS011;59921;51.332;12.410;2022-08-21T09:48:25;1.63;;;0.93;;
55601;SDS011;59921;51.332;12.410;2022-08-21T09:50:51;1.50;;;0.90;;
55601;SDS011;59921;51.332;12.410;2022-08-21T09:53:28;2.58;;;1.17;;
55601;SDS011;59921;51.332;12.410;2022-08-21T09:55:56;1.65;;;1.00;;
55601;SDS011;59921;51.332;12.410;2022-08-21T09:58:45;1.08;;;0.95;;
55601;SDS011;59921;51.332;12.410;2022-08-21T10:01:20;2.40;;;1.10;;
55601;SDS011;59921;51.332;12.410;2022-08-21T10:03:48;1.75;;;1.00;;
55601;SDS011;59921;51.332;12.410;2022-08-21T10:06:25;1.55;;;0.90;;
55601;SDS011;59921;51.332;12.410;2022-08-21T10:09:03;1.80;;;1.00;;
55601;SDS011;59921;51.332;12.410;2022-08-21T10:11:34;2.08;;;1.05;;
55601;SDS011;59921;51.332;12.410;2022-08-21T10:14:10;1.60;;;1.00;;
55601;SDS011;59921;51.332;12.410;2022-08-21T10:19:46;1.35;;;1.05;;
55601;SDS011;59921;51.332;12.410;2022-08-21T10:28:05;1.50;;;1.10;;
55601;SDS011;59921;51.332;12.410;2022-08-21T10:40:02;1.33;;;0.95;;
55601;SDS011;59921;51.332;12.410;2022-08-21T10:42:22;2.13;;;1.10;;
55601;SDS011;59921;51.332;12.410;2022-08-21T10:47:35;2.40;;;1.20;;
55601;SDS011;59921;51.332;12.410;2022-08-21T10:50:09;2.42;;;1.10;;
55601;SDS011;59921;51.332;12.410;2022-08-21T10:55:04;2.72;;;1.02;;
55601;SDS011;59921;51.332;12.410;2022-08-21T10:57:41;2.30;;;1.30;;
55601;SDS011;59921;51.332;12.410;2022-08-21T11:00:14;1.30;;;0.82;;
55601;SDS011;59921;51.332;12.410;2022-08-21T11:02:47;1.38;;;0.90;;
55601;SDS011;59921;51.332;12.410;2022-08-21T11:07:51;1.50;;;1.00;;
55601;SDS011;59921;51.332;12.410;2022-08-21T11:10:25;1.55;;;1.20;;
55601;SDS011;59921;51.332;12.410;2022-08-21T11:12:54;1.23;;;0.90;;
55601;SDS011;59921;51.332;12.410;2022-08-21T11:15:28;1.10;;;1.00;;
55601;SDS011;59921;51.332;12.410;2022-08-21T11:20:29;1.73;;;1.05;;
55601;SDS011;59921;51.332;12.410;2022-08-21T11:23:05;1.67;;;0.80;;
55601;SDS011;59921;51.332;12.410;2022-08-21T11:25:47;2.13;;;1.00;;
55601;SDS011;59921;51.332;12.410;2022-08-21T11:28:24;1.30;;;0.90;;
55601;SDS011;59921;51.332;12.410;2022-08-21T11:36:34;1.65;;;0.90;;
55601;SDS011;59921;51.332;12.410;2022-08-21T11:39:11;1.55;;;1.00;;
55601;SDS011;59921;51.332;12.410;2022-08-21T11:41:40;1.23;;;0.90;;
55601;SDS011;59921;51.332;12.410;2022-08-21T11:44:23;1.02;;;0.90;;
55601;SDS011;59921;51.332;12.410;2022-08-21T11:52:18;2.08;;;0.90;;
55601;SDS011;59921;51.332;12.410;2022-08-21T12:00:10;1.67;;;0.90;;
55601;SDS011;59921;51.332;12.410;2022-08-21T12:02:45;1.38;;;1.00;;
55601;SDS011;59921;51.332;12.410;2022-08-21T12:05:29;1.33;;;0.93;;
55601;SDS011;59921;51.332;12.410;2022-08-21T12:08:03;1.20;;;0.88;;
55601;SDS011;59921;51.332;12.410;2022-08-21T12:10:37;1.63;;;1.00;;
55601;SDS011;59921;51.332;12.410;2022-08-21T12:13:21;0.80;;;0.80;;
55601;SDS011;59921;51.332;12.410;2022-08-21T12:15:52;1.60;;;1.00;;
55601;SDS011;59921;51.332;12.410;2022-08-21T12:18:28;1.60;;;1.10;;
55601;SDS011;59921;51.332;12.410;2022-08-21T12:23:28;1.20;;;0.95;;
55601;SDS011;59921;51.332;12.410;2022-08-21T12:28:27;1.17;;;0.82;;
55601;SDS011;59921;51.332;12.410;2022-08-21T12:30:55;1.13;;;0.80;;
55601;SDS011;59921;51.332;12.410;2022-08-21T12:33:30;0.98;;;0.80;;
55601;SDS011;59921;51.332;12.410;2022-08-21T12:36:02;1.00;;;0.80;;
55601;SDS011;59921;51.332;12.410;2022-08-21T12:44:10;2.17;;;1.00;;
55601;SDS011;59921;51.332;12.410;2022-08-21T12:46:46;1.25;;;0.88;;
55601;SDS011;59921;51.332;12.410;2022-08-21T12:49:19;1.33;;;0.95;;
55601;SDS011;59921;51.332;12.410;2022-08-21T12:51:57;0.95;;;0.80;;
55601;SDS011;59921;51.332;12.410;2022-08-21T12:54:44;2.10;;;1.05;;
55601;SDS011;59921;51.332;12.410;2022-08-21T12:59:58;3.78;;;1.40;;
55601;SDS011;59921;51.332;12.410;2022-08-21T13:02:28;1.90;;;1.15;;
55601;SDS011;59921;51.332;12.410;2022-08-21T13:04:56;5.82;;;1.38;;
55601;SDS011;59921;51.332;12.410;2022-08-21T13:07:25;2.58;;;1.13;;
55601;SDS011;59921;51.332;12.410;2022-08-21T13:10:02;1.38;;;1.00;;
55601;SDS011;59921;51.332;12.410;2022-08-21T13:12:40;2.38;;;1.27;;
55601;SDS011;59921;51.332;12.410;2022-08-21T13:15:06;2.75;;;1.27;;
55601;SDS011;59921;51.332;12.410;2022-08-21T13:17:34;1.98;;;1.13;;
55601;SDS011;59921;51.332;12.410;2022-08-21T13:20:03;1.65;;;1.00;;
55601;SDS011;59921;51.332;12.410;2022-08-21T13:22:39;2.60;;;1.33;;
55601;SDS011;59921;51.332;12.410;2022-08-21T13:25:09;3.72;;;1.23;;
55601;SDS011;59921;51.332;12.410;2022-08-21T13:27:40;4.00;;;1.67;;
55601;SDS011;59921;51.332;12.410;2022-08-21T13:30:11;2.28;;;1.02;;
55601;SDS011;59921;51.332;12.410;2022-08-21T13:32:43;1.50;;;1.10;;
55601;SDS011;59921;51.332;12.410;2022-08-21T13:35:18;2.20;;;1.10;;
55601;SDS011;59921;51.332;12.410;2022-08-21T13:37:50;2.75;;;1.02;;
55601;SDS011;59921;51.332;12.410;2022-08-21T13:40:20;2.92;;;1.20;;
55601;SDS011;59921;51.332;12.410;2022-08-21T13:42:51;3.97;;;1.65;;
55601;SDS011;59921;51.332;12.410;2022-08-21T13:45:21;2.38;;;1.00;;
55601;SDS011;59921;51.332;12.410;2022-08-21T13:47:50;2.05;;;1.17;;
55601;SDS011;59921;51.332;12.410;2022-08-21T13:50:18;1.20;;;0.90;;
55601;SDS011;59921;51.332;12.410;2022-08-21T13:55:54;1.33;;;0.90;;
55601;SDS011;59921;51.332;12.410;2022-08-21T13:58:33;1.75;;;1.10;;
55601;SDS011;59921;51.332;12.410;2022-08-21T14:01:17;2.17;;;1.10;;
55601;SDS011;59921;51.332;12.410;2022-08-21T14:03:50;1.75;;;0.95;;
55601;SDS011;59921;51.332;12.410;2022-08-21T14:06:20;3.30;;;1.20;;
55601;SDS011;59921;51.332;12.410;2022-08-21T14:09:01;3.85;;;1.15;;
55601;SDS011;59921;51.332;12.410;2022-08-21T14:11:37;1.90;;;1.05;;
55601;SDS011;59921;51.332;12.410;2022-08-21T14:16:57;2.50;;;1.10;;
55601;SDS011;59921;51.332;12.410;2022-08-21T14:19:26;2.00;;;1.17;;
55601;SDS011;59921;51.332;12.410;2022-08-21T14:21:53;2.40;;;1.10;;
55601;SDS011;59921;51.332;12.410;2022-08-21T14:29:44;1.83;;;1.15;;
55601;SDS011;59921;51.332;12.410;2022-08-21T14:32:17;1.85;;;0.93;;
55601;SDS011;59921;51.332;12.410;2022-08-21T14:34:46;1.85;;;0.90;;
55601;SDS011;59921;51.332;12.410;2022-08-21T14:37:11;2.50;;;1.17;;
55601;SDS011;59921;51.332;12.410;2022-08-21T14:39:37;2.10;;;1.10;;
55601;SDS011;59921;51.332;12.410;2022-08-21T14:42:02;1.55;;;1.05;;
55601;SDS011;59921;51.332;12.410;2022-08-21T14:44:28;1.63;;;1.10;;
55601;SDS011;59921;51.332;12.410;2022-08-21T14:46:54;2.22;;;1.00;;
55601;SDS011;59921;51.332;12.410;2022-08-21T14:49:21;2.00;;;1.10;;
55601;SDS011;59921;51.332;12.410;2022-08-21T14:51:47;1.92;;;1.10;;
55601;SDS011;59921;51.332;12.410;2022-08-21T14:54:13;2.30;;;1.00;;
55601;SDS011;59921;51.332;12.410;2022-08-21T14:56:39;1.60;;;0.98;;
55601;SDS011;59921;51.332;12.410;2022-08-21T14:59:06;2.05;;;1.25;;
55601;SDS011;59921;51.332;12.410;2022-08-21T15:01:34;2.40;;;1.15;;
55601;SDS011;59921;51.332;12.410;2022-08-21T15:04:01;2.17;;;0.90;;
55601;SDS011;59921;51.332;12.410;2022-08-21T15:06:27;2.08;;;1.00;;
55601;SDS011;59921;51.332;12.410;2022-08-21T15:08:52;2.08;;;1.00;;
55601;SDS011;59921;51.332;12.410;2022-08-21T15:11:19;1.20;;;0.88;;
55601;SDS011;59921;51.332;12.410;2022-08-21T15:13:47;1.20;;;1.02;;
55601;SDS011;59921;51.332;12.410;2022-08-21T15:16:18;1.50;;;0.90;;
55601;SDS011;59921;51.332;12.410;2022-08-21T15:18:45;1.23;;;0.80;;
55601;SDS011;59921;51.332;12.410;2022-08-21T15:21:10;1.77;;;0.90;;
55601;SDS011;59921;51.332;12.410;2022-08-21T15:23:35;2.25;;;1.15;;
55601;SDS011;59921;51.332;12.410;2022-08-21T15:26:01;2.13;;;1.30;;
55601;SDS011;59921;51.332;12.410;2022-08-21T15:28:27;1.45;;;1.05;;
55601;SDS011;59921;51.332;12.410;2022-08-21T15:30:53;1.63;;;1.02;;
55601;SDS011;59921;51.332;12.410;2022-08-21T15:33:18;1.30;;;1.00;;
55601;SDS011;59921;51.332;12.410;2022-08-21T15:35:51;2.95;;;1.40;;
55601;SDS011;59921;51.332;12.410;2022-08-21T15:38:19;2.22;;;1.20;;
55601;SDS011;59921;51.332;12.410;2022-08-21T15:40:54;1.27;;;0.98;;
55601;SDS011;59921;51.332;12.410;2022-08-21T15:45:53;1.33;;;0.98;;
55601;SDS011;59921;51.332;12.410;2022-08-21T15:48:19;1.60;;;0.90;;
55601;SDS011;59921;51.332;12.410;2022-08-21T15:50:45;1.20;;;0.90;;
55601;SDS011;59921;51.332;12.410;2022-08-21T15:53:17;1.60;;;0.90;;
55601;SDS011;59921;51.332;12.410;2022-08-21T15:55:43;1.13;;;0.80;;
55601;SDS011;59921;51.332;12.410;2022-08-21T15:58:12;3.08;;;0.98;;
55601;SDS011;59921;51.332;12.410;2022-08-21T16:00:40;1.83;;;1.02;;
55601;SDS011;59921;51.332;12.410;2022-08-21T16:03:15;1.30;;;1.00;;
55601;SDS011;59921;51.332;12.410;2022-08-21T16:05:50;3.28;;;1.08;;
55601;SDS011;59921;51.332;12.410;2022-08-21T16:08:18;1.38;;;0.93;;
55601;SDS011;59921;51.332;12.410;2022-08-21T16:10:45;1.30;;;0.98;;
55601;SDS011;59921;51.332;12.410;2022-08-21T16:13:14;2.42;;;1.00;;
55601;SDS011;59921;51.332;12.410;2022-08-21T16:15:45;1.60;;;1.00;;